sensor_id;sensor_type;location;lat;lon;timestamp;P1;durP1;ratioP1;P2;durP2;ratioP2
21798;SDS011;24973;47.178;15.316;2024-03-22T00:00:21;220.80;;;93.23;;
21798;SDS011;24973;47.178;15.316;2024-03-22T00:03:08;237.20;;;100.70;;
21798;SDS011;24973;47.178;15.316;2024-03-22T00:05:56;220.17;;;91.07;;
21798;SDS011;24973;47.178;15.316;2024-03-22T00:08:42;228.17;;;98.93;;
21798;SDS011;24973;47.178;15.316;2024-03-22T00:11:30;223.23;;;92.30;;
21798;SDS011;24973;47.178;15.316;2024-03-22T00:14:18;231.53;;;96.70;;
21798;SDS011;24973;47.178;15.316;2024-03-22T00:17:07;243.83;;;102.30;;
21798;SDS011;24973;47.178;15.316;2024-03-22T00:19:54;234.77;;;96.70;;
21798;SDS011;24973;47.178;15.316;2024-03-22T00:22:42;235.93;;;97.67;;
21798;SDS011;24973;47.178;15.316;2024-03-22T00:25:30;231.63;;;97.30;;
21798;SDS011;24973;47.178;15.316;2024-03-22T00:28:18;224.97;;;94.07;;
21798;SDS011;24973;47.178;15.316;2024-03-22T00:31:04;248.27;;;105.00;;
21798;SDS011;24973;47.178;15.316;2024-03-22T00:33:54;240.57;;;102.30;;
21798;SDS011;24973;47.178;15.316;2024-03-22T00:36:41;233.50;;;98.43;;
21798;SDS011;24973;47.178;15.316;2024-03-22T00:39:29;233.77;;;97.73;;
21798;SDS011;24973;47.178;15.316;2024-03-22T00:42:15;251.60;;;107.63;;
21798;SDS011;24973;47.178;15.316;2024-03-22T00:45:03;246.50;;;105.27;;
21798;SDS011;24973;47.178;15.316;2024-03-22T00:47:51;238.80;;;100.70;;
21798;SDS011;24973;47.178;15.316;2024-03-22T00:50:41;238.90;;;101.43;;
21798;SDS011;24973;47.178;15.316;2024-03-22T00:53:28;237.57;;;98.20;;
21798;SDS011;24973;47.178;15.316;2024-03-22T00:56:16;240.83;;;99.90;;
21798;SDS011;24973;47.178;15.316;2024-03-22T00:59:03;245.10;;;104.37;;
21798;SDS011;24973;47.178;15.316;2024-03-22T01:01:52;233.30;;;98.00;;
21798;SDS011;24973;47.178;15.316;2024-03-22T01:04:39;232.27;;;95.83;;
21798;SDS011;24973;47.178;15.316;2024-03-22T01:07:28;232.17;;;97.70;;
21798;SDS011;24973;47.178;15.316;2024-03-22T01:10:16;242.87;;;100.93;;
21798;SDS011;24973;47.178;15.316;2024-03-22T01:13:04;243.43;;;104.70;;
21798;SDS011;24973;47.178;15.316;2024-03-22T01:15:52;237.57;;;99.50;;
21798;SDS011;24973;47.178;15.316;2024-03-22T01:18:39;243.73;;;101.70;;
21798;SDS011;24973;47.178;15.316;2024-03-22T01:21:27;229.37;;;95.13;;
21798;SDS011;24973;47.178;15.316;2024-03-22T01:24:15;239.20;;;101.17;;
21798;SDS011;24973;47.178;15.316;2024-03-22T01:27:03;245.60;;;111.03;;
21798;SDS011;24973;47.178;15.316;2024-03-22T01:29:50;237.57;;;100.43;;
21798;SDS011;24973;47.178;15.316;2024-03-22T01:32:38;241.73;;;100.23;;
21798;SDS011;24973;47.178;15.316;2024-03-22T01:35:25;247.13;;;105.90;;
21798;SDS011;24973;47.178;15.316;2024-03-22T01:38:13;248.10;;;104.07;;
21798;SDS011;24973;47.178;15.316;2024-03-22T01:41:01;234.63;;;101.10;;
21798;SDS011;24973;47.178;15.316;2024-03-22T01:43:49;247.30;;;103.57;;
21798;SDS011;24973;47.178;15.316;2024-03-22T01:46:36;247.03;;;107.07;;
21798;SDS011;24973;47.178;15.316;2024-03-22T01:49:24;234.23;;;96.57;;
21798;SDS011;24973;47.178;15.316;2024-03-22T01:52:11;254.37;;;108.37;;
21798;SDS011;24973;47.178;15.316;2024-03-22T01:54:59;242.50;;;100.87;;
21798;SDS011;24973;47.178;15.316;2024-03-22T01:57:48;244.13;;;101.37;;
21798;SDS011;24973;47.178;15.316;2024-03-22T02:00:36;238.53;;;99.73;;
21798;SDS011;24973;47.178;15.316;2024-03-22T02:03:24;239.87;;;104.07;;
21798;SDS011;24973;47.178;15.316;2024-03-22T02:06:11;262.90;;;109.83;;
21798;SDS011;24973;47.178;15.316;2024-03-22T02:09:00;243.40;;;103.20;;
21798;SDS011;24973;47.178;15.316;2024-03-22T02:11:47;238.57;;;99.33;;
21798;SDS011;24973;47.178;15.316;2024-03-22T02:14:36;236.60;;;98.07;;
21798;SDS011;24973;47.178;15.316;2024-03-22T02:17:23;239.40;;;101.60;;
21798;SDS011;24973;47.178;15.316;2024-03-22T02:20:11;240.57;;;100.83;;
21798;SDS011;24973;47.178;15.316;2024-03-22T02:22:58;238.80;;;97.93;;
21798;SDS011;24973;47.178;15.316;2024-03-22T02:25:47;237.30;;;97.93;;
21798;SDS011;24973;47.178;15.316;2024-03-22T02:28:35;229.63;;;96.33;;
21798;SDS011;24973;47.178;15.316;2024-03-22T02:31:23;232.53;;;97.03;;
21798;SDS011;24973;47.178;15.316;2024-03-22T02:34:11;246.53;;;104.17;;
21798;SDS011;24973;47.178;15.316;2024-03-22T02:36:59;226.33;;;94.90;;
21798;SDS011;24973;47.178;15.316;2024-03-22T02:39:46;235.73;;;98.27;;
21798;SDS011;24973;47.178;15.316;2024-03-22T02:42:35;236.63;;;97.93;;
21798;SDS011;24973;47.178;15.316;2024-03-22T02:45:22;232.97;;;96.57;;
21798;SDS011;24973;47.178;15.316;2024-03-22T02:48:10;258.20;;;121.33;;
21798;SDS011;24973;47.178;15.316;2024-03-22T02:50:57;240.57;;;97.60;;
21798;SDS011;24973;47.178;15.316;2024-03-22T02:53:45;236.67;;;102.33;;
21798;SDS011;24973;47.178;15.316;2024-03-22T02:56:33;231.97;;;97.07;;
21798;SDS011;24973;47.178;15.316;2024-03-22T02:59:21;233.23;;;95.23;;
21798;SDS011;24973;47.178;15.316;2024-03-22T03:02:12;237.77;;;99.57;;
21798;SDS011;24973;47.178;15.316;2024-03-22T03:04:59;233.13;;;97.17;;
21798;SDS011;24973;47.178;15.316;2024-03-22T03:07:47;231.57;;;95.33;;
21798;SDS011;24973;47.178;15.316;2024-03-22T03:10:34;231.33;;;96.50;;
21798;SDS011;24973;47.178;15.316;2024-03-22T03:13:22;234.63;;;97.37;;
21798;SDS011;24973;47.178;15.316;2024-03-22T03:16:10;253.27;;;107.37;;
21798;SDS011;24973;47.178;15.316;2024-03-22T03:18:58;234.27;;;99.60;;
21798;SDS011;24973;47.178;15.316;2024-03-22T03:21:45;235.53;;;98.07;;
21798;SDS011;24973;47.178;15.316;2024-03-22T03:24:33;232.77;;;97.73;;
21798;SDS011;24973;47.178;15.316;2024-03-22T03:27:20;233.83;;;97.87;;
21798;SDS011;24973;47.178;15.316;2024-03-22T03:30:08;241.23;;;100.40;;
21798;SDS011;24973;47.178;15.316;2024-03-22T03:32:57;224.40;;;94.33;;
21798;SDS011;24973;47.178;15.316;2024-03-22T03:35:45;229.73;;;96.90;;
21798;SDS011;24973;47.178;15.316;2024-03-22T03:38:32;229.40;;;96.00;;
21798;SDS011;24973;47.178;15.316;2024-03-22T03:41:23;225.47;;;93.23;;
21798;SDS011;24973;47.178;15.316;2024-03-22T03:44:10;233.83;;;98.83;;
21798;SDS011;24973;47.178;15.316;2024-03-22T03:46:59;226.93;;;93.83;;
21798;SDS011;24973;47.178;15.316;2024-03-22T03:49:49;230.60;;;96.90;;
21798;SDS011;24973;47.178;15.316;2024-03-22T03:52:38;224.43;;;93.73;;
21798;SDS011;24973;47.178;15.316;2024-03-22T03:55:24;222.97;;;90.57;;
21798;SDS011;24973;47.178;15.316;2024-03-22T03:58:13;235.40;;;97.40;;
21798;SDS011;24973;47.178;15.316;2024-03-22T04:01:05;228.63;;;95.13;;
21798;SDS011;24973;47.178;15.316;2024-03-22T04:03:52;227.50;;;95.37;;
21798;SDS011;24973;47.178;15.316;2024-03-22T04:06:41;225.70;;;93.70;;
21798;SDS011;24973;47.178;15.316;2024-03-22T04:09:30;218.50;;;88.27;;
21798;SDS011;24973;47.178;15.316;2024-03-22T04:12:19;233.93;;;97.67;;
21798;SDS011;24973;47.178;15.316;2024-03-22T04:15:06;221.43;;;92.43;;
21798;SDS011;24973;47.178;15.316;2024-03-22T04:17:56;212.63;;;89.27;;
21798;SDS011;24973;47.178;15.316;2024-03-22T04:20:52;227.20;;;93.17;;
21798;SDS011;24973;47.178;15.316;2024-03-22T04:23:42;221.87;;;93.53;;
21798;SDS011;24973;47.178;15.316;2024-03-22T04:26:28;217.30;;;90.87;;
21798;SDS011;24973;47.178;15.316;2024-03-22T04:29:16;239.37;;;97.67;;
21798;SDS011;24973;47.178;15.316;2024-03-22T04:32:03;227.40;;;93.43;;
21798;SDS011;24973;47.178;15.316;2024-03-22T04:34:51;220.83;;;90.90;;
21798;SDS011;24973;47.178;15.316;2024-03-22T04:37:40;228.80;;;95.17;;
21798;SDS011;24973;47.178;15.316;2024-03-22T04:40:30;225.40;;;93.00;;
21798;SDS011;24973;47.178;15.316;2024-03-22T04:43:17;234.20;;;95.93;;
21798;SDS011;24973;47.178;15.316;2024-03-22T04:46:06;233.83;;;97.53;;
21798;SDS011;24973;47.178;15.316;2024-03-22T04:48:54;225.37;;;93.63;;
21798;SDS011;24973;47.178;15.316;2024-03-22T04:51:40;218.33;;;90.13;;
21798;SDS011;24973;47.178;15.316;2024-03-22T04:54:28;223.73;;;90.53;;
21798;SDS011;24973;47.178;15.316;2024-03-22T04:57:16;216.50;;;89.93;;
21798;SDS011;24973;47.178;15.316;2024-03-22T05:00:05;235.03;;;97.00;;
21798;SDS011;24973;47.178;15.316;2024-03-22T05:02:54;219.37;;;88.20;;
21798;SDS011;24973;47.178;15.316;2024-03-22T05:05:42;217.33;;;86.83;;
21798;SDS011;24973;47.178;15.316;2024-03-22T05:08:29;219.17;;;90.83;;
21798;SDS011;24973;47.178;15.316;2024-03-22T05:11:17;241.63;;;101.13;;
21798;SDS011;24973;47.178;15.316;2024-03-22T05:14:05;227.10;;;92.10;;
21798;SDS011;24973;47.178;15.316;2024-03-22T05:16:53;223.33;;;90.93;;
21798;SDS011;24973;47.178;15.316;2024-03-22T05:19:40;216.70;;;88.90;;
21798;SDS011;24973;47.178;15.316;2024-03-22T05:22:28;223.67;;;91.13;;
21798;SDS011;24973;47.178;15.316;2024-03-22T05:25:15;233.83;;;96.17;;
21798;SDS011;24973;47.178;15.316;2024-03-22T05:28:03;220.10;;;90.43;;
21798;SDS011;24973;47.178;15.316;2024-03-22T05:30:52;227.67;;;93.30;;
21798;SDS011;24973;47.178;15.316;2024-03-22T05:33:39;231.40;;;93.50;;
21798;SDS011;24973;47.178;15.316;2024-03-22T05:36:27;217.20;;;87.50;;
21798;SDS011;24973;47.178;15.316;2024-03-22T05:39:14;228.03;;;94.67;;
21798;SDS011;24973;47.178;15.316;2024-03-22T05:42:02;232.90;;;93.90;;
21798;SDS011;24973;47.178;15.316;2024-03-22T05:44:50;231.87;;;94.63;;
21798;SDS011;24973;47.178;15.316;2024-03-22T05:47:39;216.73;;;86.37;;
21798;SDS011;24973;47.178;15.316;2024-03-22T05:50:27;225.53;;;89.37;;
21798;SDS011;24973;47.178;15.316;2024-03-22T05:53:14;220.10;;;88.83;;
21798;SDS011;24973;47.178;15.316;2024-03-22T05:56:02;227.83;;;92.17;;
21798;SDS011;24973;47.178;15.316;2024-03-22T05:58:50;237.90;;;96.83;;
21798;SDS011;24973;47.178;15.316;2024-03-22T06:01:37;228.17;;;93.73;;
21798;SDS011;24973;47.178;15.316;2024-03-22T06:04:27;221.63;;;91.07;;
21798;SDS011;24973;47.178;15.316;2024-03-22T06:07:13;238.30;;;95.73;;
21798;SDS011;24973;47.178;15.316;2024-03-22T06:10:03;222.30;;;89.13;;
21798;SDS011;24973;47.178;15.316;2024-03-22T06:12:52;232.33;;;93.30;;
21798;SDS011;24973;47.178;15.316;2024-03-22T06:15:38;224.37;;;91.73;;
21798;SDS011;24973;47.178;15.316;2024-03-22T06:18:31;230.03;;;94.33;;
21798;SDS011;24973;47.178;15.316;2024-03-22T06:21:19;248.00;;;102.20;;
21798;SDS011;24973;47.178;15.316;2024-03-22T06:24:07;223.77;;;88.10;;
21798;SDS011;24973;47.178;15.316;2024-03-22T06:26:54;241.77;;;98.83;;
21798;SDS011;24973;47.178;15.316;2024-03-22T06:29:42;255.13;;;105.00;;
21798;SDS011;24973;47.178;15.316;2024-03-22T06:32:29;239.80;;;94.63;;
21798;SDS011;24973;47.178;15.316;2024-03-22T06:35:17;243.53;;;99.90;;
21798;SDS011;24973;47.178;15.316;2024-03-22T06:38:05;243.50;;;98.30;;
21798;SDS011;24973;47.178;15.316;2024-03-22T06:40:53;244.80;;;97.50;;
21798;SDS011;24973;47.178;15.316;2024-03-22T06:43:40;244.23;;;94.77;;
21798;SDS011;24973;47.178;15.316;2024-03-22T06:46:28;247.53;;;96.77;;
21798;SDS011;24973;47.178;15.316;2024-03-22T06:49:15;249.40;;;99.87;;
21798;SDS011;24973;47.178;15.316;2024-03-22T06:52:03;250.03;;;100.37;;
21798;SDS011;24973;47.178;15.316;2024-03-22T06:54:51;248.70;;;98.53;;
21798;SDS011;24973;47.178;15.316;2024-03-22T06:57:39;248.30;;;99.63;;
21798;SDS011;24973;47.178;15.316;2024-03-22T07:00:26;251.17;;;96.17;;
21798;SDS011;24973;47.178;15.316;2024-03-22T07:03:14;266.37;;;107.13;;
21798;SDS011;24973;47.178;15.316;2024-03-22T07:06:01;261.53;;;103.10;;
21798;SDS011;24973;47.178;15.316;2024-03-22T07:08:51;270.67;;;106.13;;
21798;SDS011;24973;47.178;15.316;2024-03-22T07:11:39;277.30;;;108.07;;
21798;SDS011;24973;47.178;15.316;2024-03-22T07:14:28;275.23;;;106.90;;
21798;SDS011;24973;47.178;15.316;2024-03-22T07:17:14;282.93;;;111.67;;
21798;SDS011;24973;47.178;15.316;2024-03-22T07:20:03;277.07;;;109.03;;
21798;SDS011;24973;47.178;15.316;2024-03-22T07:22:52;282.70;;;112.67;;
21798;SDS011;24973;47.178;15.316;2024-03-22T07:25:40;283.00;;;112.53;;
21798;SDS011;24973;47.178;15.316;2024-03-22T07:28:29;286.50;;;114.53;;
21798;SDS011;24973;47.178;15.316;2024-03-22T07:31:17;303.17;;;125.20;;
21798;SDS011;24973;47.178;15.316;2024-03-22T07:34:05;297.13;;;120.13;;
21798;SDS011;24973;47.178;15.316;2024-03-22T07:36:52;303.13;;;126.40;;
21798;SDS011;24973;47.178;15.316;2024-03-22T07:39:40;301.87;;;124.13;;
21798;SDS011;24973;47.178;15.316;2024-03-22T07:42:27;295.00;;;122.20;;
21798;SDS011;24973;47.178;15.316;2024-03-22T07:45:16;306.53;;;125.53;;
21798;SDS011;24973;47.178;15.316;2024-03-22T07:48:03;297.97;;;122.87;;
21798;SDS011;24973;47.178;15.316;2024-03-22T07:50:55;314.77;;;125.23;;
21798;SDS011;24973;47.178;15.316;2024-03-22T07:53:42;320.27;;;130.30;;
21798;SDS011;24973;47.178;15.316;2024-03-22T07:56:31;319.27;;;130.23;;
21798;SDS011;24973;47.178;15.316;2024-03-22T07:59:18;331.43;;;141.40;;
21798;SDS011;24973;47.178;15.316;2024-03-22T08:02:08;342.60;;;143.10;;
21798;SDS011;24973;47.178;15.316;2024-03-22T08:04:56;339.27;;;140.20;;
21798;SDS011;24973;47.178;15.316;2024-03-22T08:07:42;342.30;;;145.63;;
21798;SDS011;24973;47.178;15.316;2024-03-22T08:10:30;351.60;;;148.10;;
21798;SDS011;24973;47.178;15.316;2024-03-22T08:13:17;354.27;;;157.70;;
21798;SDS011;24973;47.178;15.316;2024-03-22T08:16:05;314.80;;;169.93;;
21798;SDS011;24973;47.178;15.316;2024-03-22T08:18:53;294.07;;;171.47;;
21798;SDS011;24973;47.178;15.316;2024-03-22T08:21:41;294.23;;;172.20;;
21798;SDS011;24973;47.178;15.316;2024-03-22T08:24:28;329.03;;;172.43;;
21798;SDS011;24973;47.178;15.316;2024-03-22T08:27:16;337.20;;;183.00;;
21798;SDS011;24973;47.178;15.316;2024-03-22T08:30:03;323.53;;;178.63;;
21798;SDS011;24973;47.178;15.316;2024-03-22T08:32:53;331.63;;;182.87;;
21798;SDS011;24973;47.178;15.316;2024-03-22T08:35:41;340.57;;;184.20;;
21798;SDS011;24973;47.178;15.316;2024-03-22T08:38:29;321.50;;;183.57;;
21798;SDS011;24973;47.178;15.316;2024-03-22T08:41:16;356.33;;;198.30;;
21798;SDS011;24973;47.178;15.316;2024-03-22T08:44:04;340.87;;;189.40;;
21798;SDS011;24973;47.178;15.316;2024-03-22T08:46:51;345.30;;;198.27;;
21798;SDS011;24973;47.178;15.316;2024-03-22T08:49:39;354.90;;;202.10;;
21798;SDS011;24973;47.178;15.316;2024-03-22T08:52:28;372.83;;;199.47;;
21798;SDS011;24973;47.178;15.316;2024-03-22T08:55:17;382.10;;;201.90;;
21798;SDS011;24973;47.178;15.316;2024-03-22T08:58:04;382.47;;;208.47;;
21798;SDS011;24973;47.178;15.316;2024-03-22T09:00:52;386.27;;;209.37;;
21798;SDS011;24973;47.178;15.316;2024-03-22T09:03:39;385.50;;;214.10;;
21798;SDS011;24973;47.178;15.316;2024-03-22T09:06:30;386.33;;;221.10;;
21798;SDS011;24973;47.178;15.316;2024-03-22T09:09:19;392.57;;;228.57;;
21798;SDS011;24973;47.178;15.316;2024-03-22T09:12:07;387.00;;;225.67;;
21798;SDS011;24973;47.178;15.316;2024-03-22T09:14:54;385.63;;;228.30;;
21798;SDS011;24973;47.178;15.316;2024-03-22T09:17:42;390.67;;;232.93;;
21798;SDS011;24973;47.178;15.316;2024-03-22T09:20:29;388.17;;;239.70;;
21798;SDS011;24973;47.178;15.316;2024-03-22T09:23:17;394.03;;;243.17;;
21798;SDS011;24973;47.178;15.316;2024-03-22T09:26:06;393.07;;;247.07;;
21798;SDS011;24973;47.178;15.316;2024-03-22T09:28:54;395.33;;;254.77;;
21798;SDS011;24973;47.178;15.316;2024-03-22T09:31:40;391.03;;;253.93;;
21798;SDS011;24973;47.178;15.316;2024-03-22T09:34:28;385.83;;;254.90;;
21798;SDS011;24973;47.178;15.316;2024-03-22T09:37:15;397.90;;;261.03;;
21798;SDS011;24973;47.178;15.316;2024-03-22T09:40:03;389.07;;;258.33;;
21798;SDS011;24973;47.178;15.316;2024-03-22T09:42:54;391.73;;;252.87;;
21798;SDS011;24973;47.178;15.316;2024-03-22T09:45:49;395.70;;;258.27;;
21798;SDS011;24973;47.178;15.316;2024-03-22T09:48:37;389.37;;;253.87;;
21798;SDS011;24973;47.178;15.316;2024-03-22T09:51:25;395.43;;;266.30;;
21798;SDS011;24973;47.178;15.316;2024-03-22T09:54:13;396.63;;;272.47;;
21798;SDS011;24973;47.178;15.316;2024-03-22T09:57:00;394.20;;;278.33;;
21798;SDS011;24973;47.178;15.316;2024-03-22T09:59:50;396.63;;;280.17;;
21798;SDS011;24973;47.178;15.316;2024-03-22T10:02:37;395.03;;;281.33;;
21798;SDS011;24973;47.178;15.316;2024-03-22T10:05:25;397.23;;;288.17;;
21798;SDS011;24973;47.178;15.316;2024-03-22T10:08:12;405.97;;;300.90;;
21798;SDS011;24973;47.178;15.316;2024-03-22T10:11:01;398.53;;;291.13;;
21798;SDS011;24973;47.178;15.316;2024-03-22T10:13:50;404.90;;;298.47;;
21798;SDS011;24973;47.178;15.316;2024-03-22T10:16:38;399.90;;;299.03;;
21798;SDS011;24973;47.178;15.316;2024-03-22T10:19:26;398.83;;;296.37;;
21798;SDS011;24973;47.178;15.316;2024-03-22T10:22:15;407.17;;;309.53;;
21798;SDS011;24973;47.178;15.316;2024-03-22T10:25:04;404.27;;;308.13;;
21798;SDS011;24973;47.178;15.316;2024-03-22T10:27:53;406.57;;;314.30;;
21798;SDS011;24973;47.178;15.316;2024-03-22T10:30:40;408.53;;;320.07;;
21798;SDS011;24973;47.178;15.316;2024-03-22T10:33:32;401.23;;;314.07;;
21798;SDS011;24973;47.178;15.316;2024-03-22T10:36:19;412.60;;;322.37;;
21798;SDS011;24973;47.178;15.316;2024-03-22T10:39:07;407.20;;;317.50;;
21798;SDS011;24973;47.178;15.316;2024-03-22T10:41:56;403.13;;;309.57;;
21798;SDS011;24973;47.178;15.316;2024-03-22T10:44:44;424.83;;;326.80;;
21798;SDS011;24973;47.178;15.316;2024-03-22T10:47:33;402.10;;;320.73;;
21798;SDS011;24973;47.178;15.316;2024-03-22T10:50:22;422.73;;;340.97;;
21798;SDS011;24973;47.178;15.316;2024-03-22T10:53:11;417.63;;;341.97;;
21798;SDS011;24973;47.178;15.316;2024-03-22T10:56:02;415.17;;;341.60;;
21798;SDS011;24973;47.178;15.316;2024-03-22T10:58:54;417.57;;;349.20;;
21798;SDS011;24973;47.178;15.316;2024-03-22T11:01:44;415.90;;;345.47;;
21798;SDS011;24973;47.178;15.316;2024-03-22T11:04:33;408.50;;;333.20;;
21798;SDS011;24973;47.178;15.316;2024-03-22T11:07:21;414.63;;;336.10;;
21798;SDS011;24973;47.178;15.316;2024-03-22T11:10:11;418.57;;;334.83;;
21798;SDS011;24973;47.178;15.316;2024-03-22T11:13:00;404.63;;;323.03;;
21798;SDS011;24973;47.178;15.316;2024-03-22T11:15:48;410.77;;;336.77;;
21798;SDS011;24973;47.178;15.316;2024-03-22T11:18:35;416.67;;;361.53;;
21798;SDS011;24973;47.178;15.316;2024-03-22T11:21:23;433.83;;;385.70;;
21798;SDS011;24973;47.178;15.316;2024-03-22T11:24:11;451.57;;;403.83;;
21798;SDS011;24973;47.178;15.316;2024-03-22T11:26:59;458.63;;;410.63;;
21798;SDS011;24973;47.178;15.316;2024-03-22T11:29:46;462.33;;;414.40;;
21798;SDS011;24973;47.178;15.316;2024-03-22T11:32:37;462.40;;;415.13;;
21798;SDS011;24973;47.178;15.316;2024-03-22T11:35:29;464.33;;;416.90;;
21798;SDS011;24973;47.178;15.316;2024-03-22T11:38:17;480.87;;;431.87;;
21798;SDS011;24973;47.178;15.316;2024-03-22T11:41:05;483.50;;;435.40;;
21798;SDS011;24973;47.178;15.316;2024-03-22T11:43:54;495.30;;;446.43;;
21798;SDS011;24973;47.178;15.316;2024-03-22T11:46:43;509.20;;;459.97;;
21798;SDS011;24973;47.178;15.316;2024-03-22T11:49:31;517.13;;;468.30;;
21798;SDS011;24973;47.178;15.316;2024-03-22T11:52:18;523.93;;;473.90;;
21798;SDS011;24973;47.178;15.316;2024-03-22T11:55:11;516.33;;;466.67;;
21798;SDS011;24973;47.178;15.316;2024-03-22T11:57:59;526.57;;;477.47;;
21798;SDS011;24973;47.178;15.316;2024-03-22T12:00:47;535.77;;;486.17;;
21798;SDS011;24973;47.178;15.316;2024-03-22T12:03:34;524.73;;;475.90;;
21798;SDS011;24973;47.178;15.316;2024-03-22T12:06:22;527.07;;;477.50;;
21798;SDS011;24973;47.178;15.316;2024-03-22T12:09:09;522.83;;;473.03;;
21798;SDS011;24973;47.178;15.316;2024-03-22T12:11:59;501.03;;;452.77;;
21798;SDS011;24973;47.178;15.316;2024-03-22T12:14:47;509.47;;;460.93;;
21798;SDS011;24973;47.178;15.316;2024-03-22T12:17:36;504.47;;;455.87;;
21798;SDS011;24973;47.178;15.316;2024-03-22T12:20:25;507.50;;;458.07;;
21798;SDS011;24973;47.178;15.316;2024-03-22T12:23:14;523.93;;;474.33;;
21798;SDS011;24973;47.178;15.316;2024-03-22T12:26:00;539.77;;;489.80;;
21798;SDS011;24973;47.178;15.316;2024-03-22T12:28:48;554.53;;;504.33;;
21798;SDS011;24973;47.178;15.316;2024-03-22T12:31:38;573.37;;;523.03;;
21798;SDS011;24973;47.178;15.316;2024-03-22T12:34:26;567.73;;;517.47;;
21798;SDS011;24973;47.178;15.316;2024-03-22T12:37:15;574.93;;;524.20;;
21798;SDS011;24973;47.178;15.316;2024-03-22T12:40:03;567.97;;;517.17;;
21798;SDS011;24973;47.178;15.316;2024-03-22T12:42:54;582.87;;;531.97;;
21798;SDS011;24973;47.178;15.316;2024-03-22T12:45:42;588.50;;;537.37;;
21798;SDS011;24973;47.178;15.316;2024-03-22T12:48:30;588.80;;;537.77;;
21798;SDS011;24973;47.178;15.316;2024-03-22T12:51:18;580.77;;;529.03;;
21798;SDS011;24973;47.178;15.316;2024-03-22T12:54:05;567.27;;;516.00;;
21798;SDS011;24973;47.178;15.316;2024-03-22T12:56:54;558.03;;;507.07;;
21798;SDS011;24973;47.178;15.316;2024-03-22T12:59:42;550.33;;;499.87;;
21798;SDS011;24973;47.178;15.316;2024-03-22T13:02:31;543.43;;;493.27;;
21798;SDS011;24973;47.178;15.316;2024-03-22T13:05:20;569.70;;;517.40;;
21798;SDS011;24973;47.178;15.316;2024-03-22T13:08:07;548.03;;;497.17;;
21798;SDS011;24973;47.178;15.316;2024-03-22T13:10:55;538.23;;;487.47;;
21798;SDS011;24973;47.178;15.316;2024-03-22T13:13:42;522.47;;;471.63;;
21798;SDS011;24973;47.178;15.316;2024-03-22T13:16:30;522.77;;;471.43;;
21798;SDS011;24973;47.178;15.316;2024-03-22T13:19:17;527.97;;;475.77;;
21798;SDS011;24973;47.178;15.316;2024-03-22T13:22:06;509.20;;;459.07;;
21798;SDS011;24973;47.178;15.316;2024-03-22T13:24:53;516.57;;;466.57;;
21798;SDS011;24973;47.178;15.316;2024-03-22T13:27:41;525.60;;;475.63;;
21798;SDS011;24973;47.178;15.316;2024-03-22T13:30:28;548.50;;;497.23;;
21798;SDS011;24973;47.178;15.316;2024-03-22T13:33:16;571.40;;;519.33;;
21798;SDS011;24973;47.178;15.316;2024-03-22T13:36:03;586.77;;;535.20;;
21798;SDS011;24973;47.178;15.316;2024-03-22T13:38:53;599.37;;;547.80;;
21798;SDS011;24973;47.178;15.316;2024-03-22T13:41:40;632.43;;;580.43;;
21798;SDS011;24973;47.178;15.316;2024-03-22T13:44:29;659.53;;;606.57;;
21798;SDS011;24973;47.178;15.316;2024-03-22T13:47:19;690.13;;;635.50;;
21798;SDS011;24973;47.178;15.316;2024-03-22T13:50:08;672.53;;;619.87;;
21798;SDS011;24973;47.178;15.316;2024-03-22T13:52:55;680.80;;;627.57;;
21798;SDS011;24973;47.178;15.316;2024-03-22T13:55:44;688.77;;;635.80;;
21798;SDS011;24973;47.178;15.316;2024-03-22T13:58:32;694.03;;;640.13;;
21798;SDS011;24973;47.178;15.316;2024-03-22T14:01:20;700.90;;;646.70;;
21798;SDS011;24973;47.178;15.316;2024-03-22T14:04:09;707.23;;;653.13;;
21798;SDS011;24973;47.178;15.316;2024-03-22T14:06:57;708.97;;;655.00;;
21798;SDS011;24973;47.178;15.316;2024-03-22T14:09:44;717.15;;;663.60;;
21798;SDS011;24973;47.178;15.316;2024-03-22T14:12:34;730.38;;;676.42;;
21798;SDS011;24973;47.178;15.316;2024-03-22T14:15:21;744.53;;;689.97;;
21798;SDS011;24973;47.178;15.316;2024-03-22T14:18:12;757.60;;;703.15;;
21798;SDS011;24973;47.178;15.316;2024-03-22T14:21:00;771.28;;;716.40;;
21798;SDS011;24973;47.178;15.316;2024-03-22T14:23:48;784.17;;;729.13;;
21798;SDS011;24973;47.178;15.316;2024-03-22T14:26:36;802.25;;;747.15;;
21798;SDS011;24973;47.178;15.316;2024-03-22T14:29:29;817.67;;;761.35;;
21798;SDS011;24973;47.178;15.316;2024-03-22T14:32:17;826.30;;;769.70;;
21798;SDS011;24973;47.178;15.316;2024-03-22T14:35:04;809.97;;;754.53;;
21798;SDS011;24973;47.178;15.316;2024-03-22T14:37:53;803.10;;;747.83;;
21798;SDS011;24973;47.178;15.316;2024-03-22T14:40:40;791.08;;;736.22;;
21798;SDS011;24973;47.178;15.316;2024-03-22T14:43:28;792.20;;;736.65;;
21798;SDS011;24973;47.178;15.316;2024-03-22T14:46:18;797.25;;;740.67;;
21798;SDS011;24973;47.178;15.316;2024-03-22T14:49:10;782.50;;;727.60;;
21798;SDS011;24973;47.178;15.316;2024-03-22T14:51:57;775.75;;;721.00;;
21798;SDS011;24973;47.178;15.316;2024-03-22T14:54:46;758.13;;;703.38;;
21798;SDS011;24973;47.178;15.316;2024-03-22T14:57:33;732.63;;;678.72;;
21798;SDS011;24973;47.178;15.316;2024-03-22T15:00:21;727.88;;;673.28;;
21798;SDS011;24973;47.178;15.316;2024-03-22T15:03:13;702.97;;;649.27;;
21798;SDS011;24973;47.178;15.316;2024-03-22T15:06:01;683.50;;;629.83;;
21798;SDS011;24973;47.178;15.316;2024-03-22T15:08:48;657.67;;;604.20;;
21798;SDS011;24973;47.178;15.316;2024-03-22T15:11:37;635.57;;;583.33;;
21798;SDS011;24973;47.178;15.316;2024-03-22T15:14:24;634.43;;;581.63;;
21798;SDS011;24973;47.178;15.316;2024-03-22T15:17:14;642.17;;;589.13;;
21798;SDS011;24973;47.178;15.316;2024-03-22T15:20:09;645.50;;;593.23;;
21798;SDS011;24973;47.178;15.316;2024-03-22T15:22:58;658.77;;;606.10;;
21798;SDS011;24973;47.178;15.316;2024-03-22T15:25:45;665.10;;;611.97;;
21798;SDS011;24973;47.178;15.316;2024-03-22T15:28:34;678.53;;;625.53;;
21798;SDS011;24973;47.178;15.316;2024-03-22T15:31:21;695.23;;;640.83;;
21798;SDS011;24973;47.178;15.316;2024-03-22T15:34:09;702.27;;;648.90;;
21798;SDS011;24973;47.178;15.316;2024-03-22T15:36:58;716.20;;;662.40;;
21798;SDS011;24973;47.178;15.316;2024-03-22T15:39:47;722.30;;;668.33;;
21798;SDS011;24973;47.178;15.316;2024-03-22T15:42:35;730.75;;;676.88;;
21798;SDS011;24973;47.178;15.316;2024-03-22T15:45:22;738.40;;;683.50;;